XSR325 KFTW-KSAT
Flight info
| Callsign | XSR325 |
|---|---|
| Flight time | 0h 49m |
| Altitude | 26000 |
| Route | JPOOL8 WINDU QERVO3 |
| Aircraft | E55P/M-SBDGRW/LB2 |
Departure
| Time | 2026-05-08 13:35 |
|---|---|
| Airport | Fort Worth Meacham International Airport (KFTW) |
Arrival
| Time | 2026-05-08 14:24 |
|---|---|
| Airport | San Antonio International Airport (KSAT) |
| Time | Latitude | Longitude | Altitude | Speed | Heading |
|---|---|---|---|---|---|
| 2026-05-08 13:01 | 32.82441 | -97.35785 | 691 ft | 0 kts | 90° |
| 2026-05-08 13:29 | 32.82441 | -97.35784 | 691 ft | 1 kts | 90° |
| 2026-05-08 13:29 | 32.82422 | -97.35754 | 690 ft | 7 kts | 169° |
| 2026-05-08 13:29 | 32.82396 | -97.35797 | 690 ft | 8 kts | 272° |
| 2026-05-08 13:29 | 32.82400 | -97.35879 | 691 ft | 10 kts | 273° |
| 2026-05-08 13:30 | 32.82403 | -97.35968 | 691 ft | 11 kts | 272° |
| 2026-05-08 13:30 | 32.82452 | -97.36023 | 692 ft | 11 kts | 354° |
| 2026-05-08 13:30 | 32.82538 | -97.36037 | 693 ft | 14 kts | 352° |
| 2026-05-08 13:30 | 32.82641 | -97.36054 | 694 ft | 15 kts | 352° |
| 2026-05-08 13:31 | 32.82744 | -97.36072 | 695 ft | 14 kts | 352° |
| 2026-05-08 13:31 | 32.82845 | -97.36088 | 696 ft | 14 kts | 352° |
| 2026-05-08 13:31 | 32.82946 | -97.36105 | 696 ft | 13 kts | 352° |
| 2026-05-08 13:31 | 32.83004 | -97.36126 | 696 ft | 5 kts | 321° |
| 2026-05-08 13:32 | 32.83014 | -97.36142 | 695 ft | 2 kts | 293° |
| 2026-05-08 13:32 | 32.83014 | -97.36143 | 695 ft | 0 kts | 291° |
| 2026-05-08 13:33 | 32.83018 | -97.36161 | 694 ft | 5 kts | 275° |
| 2026-05-08 13:34 | 32.83009 | -97.36228 | 692 ft | 7 kts | 247° |
| 2026-05-08 13:34 | 32.82944 | -97.36237 | 691 ft | 19 kts | 172° |
| 2026-05-08 13:34 | 32.82513 | -97.36164 | 690 ft | 104 kts | 172° |
| 2026-05-08 13:34 | 32.81629 | -97.36011 | 995 ft | 142 kts | 169° |
| 2026-05-08 13:35 | 32.80603 | -97.35811 | 1684 ft | 160 kts | 170° |
| 2026-05-08 13:35 | 32.79422 | -97.35601 | 2239 ft | 186 kts | 171° |
| 2026-05-08 13:35 | 32.78098 | -97.35333 | 2730 ft | 199 kts | 169° |
| 2026-05-08 13:35 | 32.76736 | -97.34995 | 3252 ft | 204 kts | 169° |
| 2026-05-08 13:36 | 32.75344 | -97.34659 | 3936 ft | 206 kts | 170° |
| 2026-05-08 13:36 | 32.73951 | -97.34312 | 4705 ft | 207 kts | 170° |
| 2026-05-08 13:36 | 32.72526 | -97.33947 | 5408 ft | 211 kts | 170° |
| 2026-05-08 13:36 | 32.71042 | -97.33491 | 6038 ft | 233 kts | 163° |
| 2026-05-08 13:37 | 32.69536 | -97.32648 | 6760 ft | 249 kts | 156° |
| 2026-05-08 13:37 | 32.67986 | -97.31661 | 7492 ft | 262 kts | 155° |
| 2026-05-08 13:37 | 32.66355 | -97.30599 | 8278 ft | 273 kts | 155° |
| 2026-05-08 13:37 | 32.64683 | -97.29502 | 9078 ft | 281 kts | 155° |
| 2026-05-08 13:38 | 32.62953 | -97.28375 | 9911 ft | 288 kts | 155° |
| 2026-05-08 13:38 | 32.61198 | -97.27241 | 10719 ft | 294 kts | 155° |
| 2026-05-08 13:38 | 32.59385 | -97.26052 | 11519 ft | 300 kts | 155° |
| 2026-05-08 13:38 | 32.57552 | -97.24850 | 12298 ft | 306 kts | 155° |
| 2026-05-08 13:39 | 32.55660 | -97.23624 | 13023 ft | 314 kts | 155° |
| 2026-05-08 13:39 | 32.53764 | -97.22372 | 13737 ft | 321 kts | 155° |
| 2026-05-08 13:39 | 32.51797 | -97.21084 | 14525 ft | 325 kts | 155° |
| 2026-05-08 13:39 | 32.49809 | -97.19783 | 15341 ft | 327 kts | 156° |
| 2026-05-08 13:40 | 32.47816 | -97.18482 | 16093 ft | 331 kts | 156° |
| 2026-05-08 13:40 | 32.45803 | -97.17167 | 16812 ft | 335 kts | 157° |
| 2026-05-08 13:40 | 32.43769 | -97.15839 | 17544 ft | 338 kts | 157° |
| 2026-05-08 13:40 | 32.41703 | -97.14491 | 18235 ft | 342 kts | 158° |
| 2026-05-08 13:41 | 32.39609 | -97.13125 | 18895 ft | 346 kts | 158° |
| 2026-05-08 13:41 | 32.37497 | -97.11752 | 19560 ft | 350 kts | 158° |
| 2026-05-08 13:41 | 32.35343 | -97.10346 | 20195 ft | 354 kts | 159° |
| 2026-05-08 13:41 | 32.33177 | -97.08935 | 20858 ft | 356 kts | 159° |
| 2026-05-08 13:42 | 32.31005 | -97.07525 | 21472 ft | 360 kts | 160° |
| 2026-05-08 13:42 | 32.28748 | -97.06361 | 22062 ft | 346 kts | 177° |
| 2026-05-08 13:42 | 32.26438 | -97.06411 | 22626 ft | 326 kts | 201° |
| 2026-05-08 13:42 | 32.24243 | -97.06979 | 23248 ft | 327 kts | 200° |
| 2026-05-08 13:43 | 32.22004 | -97.07533 | 23831 ft | 328 kts | 201° |
| 2026-05-08 13:43 | 32.19783 | -97.08095 | 24399 ft | 330 kts | 201° |
| 2026-05-08 13:43 | 32.17533 | -97.08659 | 25016 ft | 329 kts | 201° |
| 2026-05-08 13:43 | 32.15315 | -97.09216 | 25543 ft | 331 kts | 201° |
| 2026-05-08 13:44 | 32.13028 | -97.09794 | 25925 ft | 337 kts | 201° |
| 2026-05-08 13:44 | 32.10679 | -97.10387 | 26004 ft | 350 kts | 201° |
| 2026-05-08 13:44 | 32.08251 | -97.11002 | 26018 ft | 364 kts | 200° |
| 2026-05-08 13:44 | 32.05752 | -97.11629 | 26016 ft | 376 kts | 200° |
| 2026-05-08 13:45 | 32.03131 | -97.12284 | 26014 ft | 385 kts | 200° |
| 2026-05-08 13:45 | 32.00513 | -97.12936 | 26002 ft | 384 kts | 200° |
| 2026-05-08 13:45 | 31.97909 | -97.13586 | 25999 ft | 383 kts | 200° |
| 2026-05-08 13:45 | 31.95314 | -97.14236 | 25998 ft | 381 kts | 200° |
| 2026-05-08 13:46 | 31.92717 | -97.14886 | 26001 ft | 380 kts | 200° |
| 2026-05-08 13:46 | 31.90125 | -97.15533 | 26003 ft | 381 kts | 200° |
| 2026-05-08 13:46 | 31.87524 | -97.16184 | 26014 ft | 381 kts | 200° |
| 2026-05-08 13:46 | 31.84939 | -97.16830 | 26019 ft | 381 kts | 200° |
| 2026-05-08 13:47 | 31.82358 | -97.17474 | 26023 ft | 382 kts | 200° |
| 2026-05-08 13:47 | 31.79735 | -97.18130 | 26026 ft | 382 kts | 200° |
| 2026-05-08 13:47 | 31.77129 | -97.18778 | 26026 ft | 381 kts | 199° |
| 2026-05-08 13:47 | 31.74537 | -97.19423 | 26022 ft | 381 kts | 200° |
| 2026-05-08 13:48 | 31.71973 | -97.20062 | 26020 ft | 381 kts | 200° |
| 2026-05-08 13:48 | 31.69366 | -97.20712 | 26021 ft | 380 kts | 200° |
| 2026-05-08 13:48 | 31.66779 | -97.21358 | 26021 ft | 380 kts | 200° |
| 2026-05-08 13:48 | 31.64184 | -97.22000 | 26022 ft | 379 kts | 200° |
| 2026-05-08 13:49 | 31.61596 | -97.22643 | 26022 ft | 379 kts | 199° |
| 2026-05-08 13:49 | 31.59036 | -97.23283 | 26021 ft | 379 kts | 200° |
| 2026-05-08 13:49 | 31.56466 | -97.23917 | 26019 ft | 379 kts | 200° |
| 2026-05-08 13:49 | 31.53866 | -97.24564 | 26025 ft | 380 kts | 200° |
| 2026-05-08 13:50 | 31.51268 | -97.25211 | 26030 ft | 381 kts | 200° |
| 2026-05-08 13:50 | 31.48694 | -97.25902 | 26037 ft | 381 kts | 199° |
| 2026-05-08 13:50 | 31.46077 | -97.26509 | 26037 ft | 382 kts | 200° |
| 2026-05-08 13:50 | 31.43475 | -97.27148 | 26033 ft | 383 kts | 199° |
| 2026-05-08 13:51 | 31.40860 | -97.27791 | 26034 ft | 382 kts | 199° |
| 2026-05-08 13:51 | 31.38259 | -97.28432 | 26030 ft | 383 kts | 199° |
| 2026-05-08 13:51 | 31.35652 | -97.29076 | 26020 ft | 383 kts | 200° |
| 2026-05-08 13:51 | 31.33055 | -97.29718 | 26026 ft | 383 kts | 199° |
| 2026-05-08 13:52 | 31.30425 | -97.30366 | 26019 ft | 384 kts | 199° |
| 2026-05-08 13:52 | 31.27814 | -97.31011 | 26019 ft | 384 kts | 200° |
| 2026-05-08 13:52 | 31.25202 | -97.31654 | 26020 ft | 384 kts | 200° |
| 2026-05-08 13:52 | 31.22597 | -97.32297 | 26013 ft | 383 kts | 200° |
| 2026-05-08 13:53 | 31.19971 | -97.32941 | 26008 ft | 383 kts | 199° |
| 2026-05-08 13:53 | 31.17393 | -97.33579 | 26005 ft | 383 kts | 199° |
| 2026-05-08 13:53 | 31.14767 | -97.34223 | 26000 ft | 383 kts | 199° |
| 2026-05-08 13:53 | 31.12152 | -97.34868 | 26004 ft | 383 kts | 199° |
| 2026-05-08 13:54 | 31.09546 | -97.35508 | 26004 ft | 382 kts | 199° |
| 2026-05-08 13:54 | 31.06968 | -97.36140 | 25998 ft | 381 kts | 199° |
| 2026-05-08 13:54 | 31.04356 | -97.36783 | 25993 ft | 382 kts | 199° |
| 2026-05-08 13:54 | 31.01735 | -97.37424 | 25997 ft | 381 kts | 199° |
| 2026-05-08 13:55 | 30.99169 | -97.38054 | 26001 ft | 380 kts | 200° |
| 2026-05-08 13:55 | 30.96587 | -97.38683 | 26003 ft | 380 kts | 200° |
| 2026-05-08 13:55 | 30.91412 | -97.39952 | 26000 ft | 378 kts | 199° |
| 2026-05-08 13:56 | 30.88851 | -97.40575 | 26010 ft | 377 kts | 199° |
| 2026-05-08 13:56 | 30.86252 | -97.41214 | 26010 ft | 377 kts | 200° |
| 2026-05-08 13:56 | 30.83708 | -97.41840 | 26017 ft | 376 kts | 200° |
| 2026-05-08 13:56 | 30.81138 | -97.42463 | 26020 ft | 377 kts | 199° |
| 2026-05-08 13:57 | 30.78558 | -97.43095 | 26024 ft | 377 kts | 200° |
| 2026-05-08 13:57 | 30.76024 | -97.43711 | 26021 ft | 377 kts | 200° |
| 2026-05-08 13:57 | 30.73428 | -97.44346 | 26022 ft | 377 kts | 199° |
| 2026-05-08 13:57 | 30.70873 | -97.44969 | 26019 ft | 377 kts | 200° |
| 2026-05-08 13:58 | 30.68315 | -97.45589 | 26021 ft | 376 kts | 199° |
| 2026-05-08 13:58 | 30.65746 | -97.46217 | 26022 ft | 376 kts | 200° |
| 2026-05-08 13:58 | 30.63187 | -97.46841 | 26020 ft | 376 kts | 199° |
| 2026-05-08 13:58 | 30.60611 | -97.47463 | 26015 ft | 376 kts | 199° |
| 2026-05-08 13:59 | 30.58075 | -97.48083 | 26016 ft | 376 kts | 199° |
| 2026-05-08 13:59 | 30.55514 | -97.48704 | 26011 ft | 376 kts | 199° |
| 2026-05-08 13:59 | 30.52941 | -97.49326 | 26005 ft | 376 kts | 200° |
| 2026-05-08 13:59 | 30.50359 | -97.49956 | 26004 ft | 376 kts | 200° |
| 2026-05-08 14:00 | 30.47811 | -97.50572 | 25990 ft | 376 kts | 199° |
| 2026-05-08 14:00 | 30.45269 | -97.51189 | 25988 ft | 376 kts | 199° |
| 2026-05-08 14:00 | 30.42679 | -97.51817 | 25860 ft | 379 kts | 200° |
| 2026-05-08 14:00 | 30.40079 | -97.52450 | 25409 ft | 390 kts | 199° |
| 2026-05-08 14:01 | 30.37438 | -97.53275 | 24919 ft | 387 kts | 210° |
| 2026-05-08 14:01 | 30.35157 | -97.54865 | 24456 ft | 386 kts | 216° |
| 2026-05-08 14:01 | 30.32856 | -97.56428 | 24020 ft | 387 kts | 216° |
| 2026-05-08 14:01 | 30.30540 | -97.58044 | 23579 ft | 389 kts | 216° |
| 2026-05-08 14:02 | 30.28221 | -97.59647 | 23111 ft | 390 kts | 216° |
| 2026-05-08 14:02 | 30.25902 | -97.61248 | 22614 ft | 387 kts | 216° |
| 2026-05-08 14:02 | 30.23591 | -97.62849 | 22114 ft | 383 kts | 216° |
| 2026-05-08 14:02 | 30.21317 | -97.64423 | 21617 ft | 379 kts | 216° |
| 2026-05-08 14:03 | 30.19052 | -97.65980 | 21128 ft | 376 kts | 215° |
| 2026-05-08 14:03 | 30.16829 | -97.67518 | 20649 ft | 372 kts | 215° |
| 2026-05-08 14:03 | 30.14631 | -97.69033 | 20174 ft | 372 kts | 215° |
| 2026-05-08 14:03 | 30.12389 | -97.70579 | 19694 ft | 372 kts | 215° |
| 2026-05-08 14:04 | 30.10174 | -97.72106 | 19225 ft | 371 kts | 215° |
| 2026-05-08 14:04 | 30.07983 | -97.73614 | 18763 ft | 370 kts | 215° |
| 2026-05-08 14:04 | 30.05770 | -97.75140 | 18292 ft | 368 kts | 215° |
| 2026-05-08 14:04 | 30.03568 | -97.76657 | 17812 ft | 367 kts | 216° |
| 2026-05-08 14:05 | 30.01388 | -97.78153 | 17342 ft | 364 kts | 215° |
| 2026-05-08 14:05 | 29.99262 | -97.79618 | 16857 ft | 357 kts | 214° |
| 2026-05-08 14:05 | 29.97151 | -97.81066 | 16376 ft | 350 kts | 214° |
| 2026-05-08 14:05 | 29.95075 | -97.82494 | 15889 ft | 344 kts | 214° |
| 2026-05-08 14:06 | 29.93043 | -97.83889 | 15404 ft | 340 kts | 213° |
| 2026-05-08 14:06 | 29.91012 | -97.85295 | 14912 ft | 335 kts | 216° |
| 2026-05-08 14:06 | 29.89429 | -97.87174 | 14409 ft | 328 kts | 241° |
| 2026-05-08 14:06 | 29.88631 | -97.89599 | 13947 ft | 326 kts | 250° |
| 2026-05-08 14:07 | 29.87826 | -97.92039 | 13464 ft | 326 kts | 249° |
| 2026-05-08 14:07 | 29.87037 | -97.94486 | 12985 ft | 328 kts | 249° |
| 2026-05-08 14:07 | 29.86228 | -97.96929 | 12696 ft | 324 kts | 248° |
| 2026-05-08 14:07 | 29.85426 | -97.99329 | 12449 ft | 319 kts | 248° |
| 2026-05-08 14:08 | 29.84635 | -98.01694 | 12204 ft | 315 kts | 248° |
| 2026-05-08 14:08 | 29.83598 | -98.03834 | 11941 ft | 311 kts | 227° |
| 2026-05-08 14:08 | 29.81958 | -98.05439 | 11717 ft | 307 kts | 221° |
| 2026-05-08 14:08 | 29.80372 | -98.07061 | 11481 ft | 304 kts | 220° |
| 2026-05-08 14:09 | 29.78785 | -98.08658 | 11239 ft | 302 kts | 221° |
| 2026-05-08 14:09 | 29.77203 | -98.10249 | 10997 ft | 300 kts | 220° |
| 2026-05-08 14:09 | 29.75628 | -98.11836 | 10754 ft | 299 kts | 220° |
| 2026-05-08 14:09 | 29.74075 | -98.13402 | 10512 ft | 297 kts | 220° |
| 2026-05-08 14:10 | 29.72518 | -98.14969 | 10266 ft | 294 kts | 220° |
| 2026-05-08 14:10 | 29.70993 | -98.16504 | 9999 ft | 293 kts | 220° |
| 2026-05-08 14:10 | 29.69449 | -98.18056 | 9684 ft | 293 kts | 220° |
| 2026-05-08 14:10 | 29.67932 | -98.19582 | 9376 ft | 291 kts | 220° |
| 2026-05-08 14:11 | 29.66420 | -98.21103 | 9081 ft | 289 kts | 220° |
| 2026-05-08 14:11 | 29.64912 | -98.22619 | 8792 ft | 287 kts | 219° |
| 2026-05-08 14:11 | 29.63418 | -98.24118 | 8503 ft | 284 kts | 219° |
| 2026-05-08 14:11 | 29.61922 | -98.25621 | 8211 ft | 282 kts | 219° |
| 2026-05-08 14:12 | 29.60463 | -98.27084 | 7941 ft | 278 kts | 219° |
| 2026-05-08 14:12 | 29.59010 | -98.28542 | 7692 ft | 271 kts | 219° |
| 2026-05-08 14:12 | 29.57631 | -98.29926 | 7445 ft | 260 kts | 219° |
| 2026-05-08 14:12 | 29.56291 | -98.31268 | 7192 ft | 251 kts | 219° |
| 2026-05-08 14:13 | 29.54991 | -98.32571 | 6940 ft | 242 kts | 219° |
| 2026-05-08 14:13 | 29.53742 | -98.33823 | 6694 ft | 237 kts | 218° |
| 2026-05-08 14:13 | 29.52505 | -98.35059 | 6445 ft | 233 kts | 218° |
| 2026-05-08 14:13 | 29.51289 | -98.36279 | 6200 ft | 229 kts | 218° |
| 2026-05-08 14:14 | 29.50099 | -98.37466 | 6019 ft | 224 kts | 218° |
| 2026-05-08 14:14 | 29.48938 | -98.38628 | 5997 ft | 221 kts | 219° |
| 2026-05-08 14:14 | 29.47789 | -98.39775 | 5995 ft | 218 kts | 218° |
| 2026-05-08 14:14 | 29.46638 | -98.40912 | 5994 ft | 216 kts | 217° |
| 2026-05-08 14:15 | 29.45492 | -98.42026 | 5999 ft | 217 kts | 217° |
| 2026-05-08 14:15 | 29.44344 | -98.43143 | 6000 ft | 217 kts | 217° |
| 2026-05-08 14:15 | 29.43186 | -98.44273 | 5976 ft | 219 kts | 217° |
| 2026-05-08 14:15 | 29.42021 | -98.45408 | 5971 ft | 219 kts | 217° |
| 2026-05-08 14:16 | 29.40870 | -98.46531 | 5966 ft | 219 kts | 217° |
| 2026-05-08 14:16 | 29.39701 | -98.47669 | 5962 ft | 218 kts | 217° |
| 2026-05-08 14:16 | 29.38548 | -98.48789 | 5960 ft | 217 kts | 217° |
| 2026-05-08 14:16 | 29.37388 | -98.49919 | 5926 ft | 218 kts | 217° |
| 2026-05-08 14:17 | 29.36253 | -98.51027 | 5738 ft | 211 kts | 217° |
| 2026-05-08 14:17 | 29.35156 | -98.52091 | 5459 ft | 206 kts | 217° |
| 2026-05-08 14:17 | 29.34068 | -98.53155 | 5176 ft | 203 kts | 217° |
| 2026-05-08 14:17 | 29.33087 | -98.54289 | 4891 ft | 203 kts | 234° |
| 2026-05-08 14:18 | 29.32795 | -98.55857 | 4650 ft | 207 kts | 276° |
| 2026-05-08 14:18 | 29.33455 | -98.57303 | 4425 ft | 209 kts | 311° |
| 2026-05-08 14:18 | 29.34480 | -98.58466 | 4222 ft | 205 kts | 313° |
| 2026-05-08 14:18 | 29.35493 | -98.59605 | 4022 ft | 201 kts | 314° |
| 2026-05-08 14:19 | 29.36607 | -98.60496 | 3969 ft | 199 kts | 343° |
| 2026-05-08 14:19 | 29.37954 | -98.60427 | 3971 ft | 194 kts | 26° |
| 2026-05-08 14:19 | 29.39104 | -98.59640 | 4012 ft | 185 kts | 37° |
| 2026-05-08 14:19 | 29.40117 | -98.58826 | 3917 ft | 175 kts | 40° |
| 2026-05-08 14:20 | 29.41052 | -98.57973 | 3709 ft | 173 kts | 42° |
| 2026-05-08 14:20 | 29.41985 | -98.57084 | 3475 ft | 173 kts | 42° |
| 2026-05-08 14:20 | 29.42902 | -98.56193 | 3246 ft | 173 kts | 43° |
| 2026-05-08 14:20 | 29.43813 | -98.55302 | 3023 ft | 172 kts | 44° |
| 2026-05-08 14:21 | 29.44720 | -98.54418 | 2794 ft | 169 kts | 43° |
| 2026-05-08 14:21 | 29.45556 | -98.53619 | 2588 ft | 146 kts | 42° |
| 2026-05-08 14:21 | 29.46293 | -98.52898 | 2360 ft | 132 kts | 44° |
| 2026-05-08 14:21 | 29.46962 | -98.52230 | 2186 ft | 122 kts | 43° |
| 2026-05-08 14:22 | 29.47578 | -98.51611 | 2020 ft | 117 kts | 43° |
| 2026-05-08 14:22 | 29.48193 | -98.51015 | 1873 ft | 113 kts | 41° |
| 2026-05-08 14:22 | 29.48797 | -98.50433 | 1723 ft | 112 kts | 42° |
| 2026-05-08 14:22 | 29.49384 | -98.49853 | 1577 ft | 111 kts | 40° |
| 2026-05-08 14:23 | 29.49982 | -98.49288 | 1429 ft | 111 kts | 41° |
| 2026-05-08 14:23 | 29.50564 | -98.48713 | 1285 ft | 111 kts | 41° |
| 2026-05-08 14:23 | 29.51147 | -98.48141 | 1136 ft | 110 kts | 40° |
| 2026-05-08 14:23 | 29.51725 | -98.47578 | 987 ft | 109 kts | 40° |
| 2026-05-08 14:24 | 29.52296 | -98.47016 | 829 ft | 106 kts | 40° |
| 2026-05-08 14:24 | 29.52820 | -98.46502 | 776 ft | 86 kts | 41° |
| 2026-05-08 14:24 | 29.53157 | -98.46169 | 772 ft | 35 kts | 41° |
| 2026-05-08 14:24 | 29.53252 | -98.46129 | 772 ft | 11 kts | 314° |
| 2026-05-08 14:25 | 29.53286 | -98.46206 | 772 ft | 11 kts | 255° |
| 2026-05-08 14:25 | 29.53225 | -98.46286 | 772 ft | 17 kts | 221° |
| 2026-05-08 14:25 | 29.53114 | -98.46395 | 774 ft | 23 kts | 221° |
| 2026-05-08 14:25 | 29.52991 | -98.46518 | 776 ft | 23 kts | 221° |
| 2026-05-08 14:26 | 29.52871 | -98.46636 | 778 ft | 22 kts | 221° |
| 2026-05-08 14:26 | 29.52755 | -98.46753 | 781 ft | 21 kts | 221° |
| 2026-05-08 14:26 | 29.52635 | -98.46850 | 782 ft | 21 kts | 222° |
| 2026-05-08 14:26 | 29.52525 | -98.46957 | 785 ft | 20 kts | 221° |
| 2026-05-08 14:27 | 29.52422 | -98.47053 | 786 ft | 15 kts | 192° |
| 2026-05-08 14:27 | 29.52344 | -98.46983 | 785 ft | 16 kts | 115° |
| 2026-05-08 14:27 | 29.52277 | -98.46867 | 783 ft | 18 kts | 131° |
| 2026-05-08 14:27 | 29.52214 | -98.46782 | 781 ft | 11 kts | 127° |
| 2026-05-08 14:28 | 29.52177 | -98.46732 | 780 ft | 2 kts | 181° |
| 2026-05-08 14:28 | 29.52173 | -98.46734 | 780 ft | 0 kts | 223° |
| 2026-05-08 14:28 | 29.52173 | -98.46735 | 780 ft | 0 kts | 223° |